createdAt,value
2022-10-25T00:02:55.706Z,4.90
2022-10-25T00:07:50.528Z,6.70
2022-10-25T00:12:46.344Z,6.30
2022-10-25T00:17:42.526Z,7.60
2022-10-25T00:22:38.568Z,6.10
2022-10-25T00:27:34.829Z,5.30
2022-10-25T00:32:29.532Z,5.00
2022-10-25T00:37:24.600Z,5.20
2022-10-25T00:42:25.168Z,5.50
2022-10-25T00:47:56.846Z,5.90
2022-10-25T00:52:56.425Z,5.90
2022-10-25T00:57:59.717Z,5.90
2022-10-25T01:07:51.679Z,5.80
2022-10-25T01:12:48.637Z,5.70
2022-10-25T01:18:01.659Z,7.30
2022-10-25T01:23:15.529Z,6.10
2022-10-25T01:28:19.246Z,6.50
2022-10-25T01:33:27.581Z,6.00
2022-10-25T01:38:38.678Z,7.20
2022-10-25T01:43:48.168Z,6.50
2022-10-25T01:48:51.412Z,5.40
2022-10-25T01:53:49.269Z,6.30
2022-10-25T01:59:00.412Z,5.40
2022-10-25T02:04:07.258Z,5.80
2022-10-25T02:09:09.906Z,5.90
2022-10-25T02:14:24.281Z,6.50
2022-10-25T02:19:25.909Z,6.20
2022-10-25T02:24:26.008Z,6.00
2022-10-25T02:29:23.510Z,7.00
2022-10-25T02:34:20.049Z,7.60
2022-10-25T02:39:15.960Z,8.60
2022-10-25T02:44:10.696Z,8.40
2022-10-25T02:49:05.908Z,7.70
2022-10-25T02:54:01.640Z,8.80
2022-10-25T02:58:58.734Z,9.80
2022-10-25T03:03:54.317Z,8.90
2022-10-25T03:08:49.273Z,9.10
2022-10-25T03:13:44.387Z,9.10
2022-10-25T03:18:40.439Z,8.30
2022-10-25T03:23:36.093Z,8.60
2022-10-25T03:28:31.954Z,9.00
2022-10-25T03:33:28.361Z,9.20
2022-10-25T03:38:23.953Z,8.50
2022-10-25T03:43:19.309Z,8.10
2022-10-25T03:48:14.154Z,8.70
2022-10-25T03:53:10.581Z,7.70
2022-10-25T03:58:06.374Z,8.30
2022-10-25T04:03:03.180Z,7.10
2022-10-25T04:07:58.968Z,7.50
2022-10-25T04:12:55.026Z,7.80
2022-10-25T04:17:52.044Z,6.70
2022-10-25T04:22:52.543Z,7.30
2022-10-25T04:27:48.141Z,6.80
2022-10-25T04:32:43.273Z,7.70
2022-10-25T04:37:39.341Z,7.70
2022-10-25T04:42:35.532Z,7.30
2022-10-25T04:47:35.376Z,7.70
2022-10-25T04:52:31.971Z,7.80
2022-10-25T04:57:27.978Z,7.70
2022-10-25T05:02:23.510Z,8.30
2022-10-25T05:07:21.068Z,7.80
2022-10-25T05:12:17.292Z,8.00
2022-10-25T05:17:13.007Z,8.20
2022-10-25T05:22:07.875Z,7.60
2022-10-25T05:27:05.270Z,7.90
2022-10-25T05:32:00.413Z,7.60
2022-10-25T05:36:55.554Z,8.40
2022-10-25T05:41:50.335Z,7.90
2022-10-25T05:46:46.196Z,8.00
2022-10-25T05:51:41.850Z,8.40
2022-10-25T05:56:38.728Z,7.40
2022-10-25T06:01:34.910Z,9.00
2022-10-25T06:06:30.176Z,7.20
2022-10-25T06:11:26.535Z,6.80
2022-10-25T06:16:23.092Z,7.30
2022-10-25T06:21:21.584Z,7.30
2022-10-25T06:26:19.207Z,7.50
2022-10-25T06:31:16.709Z,7.50
2022-10-25T06:36:16.553Z,7.50
2022-10-25T06:41:17.226Z,8.20
2022-10-25T06:46:18.197Z,7.70
2022-10-25T06:51:13.909Z,7.80
2022-10-25T06:56:14.716Z,7.60
2022-10-25T07:01:14.509Z,7.10
2022-10-25T07:06:12.509Z,6.70
2022-10-25T07:11:13.223Z,6.10
2022-10-25T07:16:11.654Z,7.70
2022-10-25T07:21:11.568Z,8.00
2022-10-25T07:26:09.483Z,7.10
2022-10-25T07:31:04.332Z,8.00
2022-10-25T07:36:10.155Z,8.50
2022-10-25T07:41:06.697Z,6.60
2022-10-25T07:46:02.462Z,8.10
2022-10-25T07:50:58.024Z,7.80
2022-10-25T07:55:55.209Z,8.10
2022-10-25T08:01:15.197Z,7.50
2022-10-25T08:06:11.874Z,7.50
2022-10-25T08:11:08.297Z,5.40
2022-10-25T08:16:03.829Z,7.00
2022-10-25T08:21:03.094Z,7.50
2022-10-25T08:25:59.488Z,7.90
2022-10-25T08:30:55.779Z,6.70
2022-10-25T08:35:51.868Z,7.40
2022-10-25T08:40:57.795Z,7.80
2022-10-25T08:46:00.204Z,7.20
2022-10-25T08:51:02.209Z,7.20
2022-10-25T08:56:15.579Z,7.00
2022-10-25T09:01:20.577Z,8.00
2022-10-25T09:06:28.541Z,9.00
2022-10-25T09:11:46.871Z,11.10
2022-10-25T09:16:50.178Z,10.30
2022-10-25T09:21:51.510Z,9.10
2022-10-25T09:27:00.565Z,10.30
2022-10-25T09:32:00.219Z,8.60
2022-10-25T09:37:03.290Z,9.50
2022-10-25T09:42:01.093Z,9.10
2022-10-25T09:47:02.469Z,8.70
2022-10-25T09:52:07.392Z,9.80
2022-10-25T09:57:02.057Z,8.90
2022-10-25T10:01:57.320Z,8.00
2022-10-25T10:06:56.594Z,10.00
2022-10-25T10:11:55.674Z,5.70
2022-10-25T10:16:55.408Z,8.80
2022-10-25T10:21:55.138Z,10.30
2022-10-25T10:26:55.207Z,9.30
2022-10-25T10:31:54.158Z,7.30
2022-10-25T10:37:00.861Z,9.30
2022-10-25T10:42:03.158Z,8.10
2022-10-25T10:46:58.351Z,7.60
2022-10-25T10:51:53.793Z,5.90
2022-10-25T10:56:57.444Z,8.40
2022-10-25T11:01:53.258Z,8.90
2022-10-25T11:06:48.259Z,4.30
2022-10-25T11:11:44.063Z,7.80
2022-10-25T11:16:58.923Z,6.20
2022-10-25T11:22:14.661Z,6.10
2022-10-25T11:27:22.713Z,8.60
2022-10-25T11:32:51.338Z,7.40
2022-10-25T11:37:58.299Z,8.30
2022-10-25T11:43:09.260Z,7.50
2022-10-25T11:48:27.718Z,6.40
2022-10-25T11:53:40.684Z,5.80
2022-10-25T11:59:05.207Z,5.50
2022-10-25T12:04:30.684Z,6.00
2022-10-25T12:09:42.953Z,6.00
2022-10-25T12:14:43.828Z,4.90
2022-10-25T12:19:46.203Z,5.50
2022-10-25T12:24:51.385Z,5.80
2022-10-25T12:29:53.920Z,5.40
2022-10-25T12:34:53.352Z,4.70
2022-10-25T12:39:48.965Z,3.90
2022-10-25T12:45:15.265Z,4.90
2022-10-25T12:50:41.009Z,4.60
2022-10-25T12:55:56.477Z,4.70
2022-10-25T13:01:15.505Z,4.60
2022-10-25T13:06:29.958Z,5.00
2022-10-25T13:11:36.197Z,4.90
2022-10-25T13:16:33.871Z,4.80
2022-10-25T13:22:13.719Z,6.10
2022-10-25T13:27:24.891Z,4.70
2022-10-25T13:32:21.788Z,4.00
2022-10-25T13:37:55.487Z,2.70
2022-10-25T13:43:02.142Z,4.20
2022-10-25T13:47:58.285Z,3.50
2022-10-25T13:53:03.167Z,3.20
2022-10-25T13:58:00.592Z,4.30
2022-10-25T14:03:27.962Z,4.50
2022-10-25T14:08:28.567Z,4.40
2022-10-25T14:13:39.376Z,4.50
2022-10-25T14:18:40.296Z,4.50
2022-10-25T14:23:36.843Z,4.60
2022-10-25T14:28:35.267Z,5.70
2022-10-25T14:33:35.455Z,5.20
2022-10-25T14:38:36.701Z,4.40
2022-10-25T14:43:35.787Z,3.90
2022-10-25T14:48:31.996Z,2.90
2022-10-25T14:53:28.405Z,3.10
2022-10-25T14:58:24.890Z,2.80
2022-10-25T15:03:20.098Z,3.40
2022-10-25T15:08:21.992Z,2.80
2022-10-25T15:13:27.500Z,2.10
2022-10-25T15:18:33.365Z,2.00
2022-10-25T15:23:28.786Z,2.00
2022-10-25T15:28:23.342Z,2.80
2022-10-25T15:33:23.347Z,2.60
2022-10-25T15:38:19.590Z,2.90
2022-10-25T15:43:15.903Z,2.80
2022-10-25T15:48:17.521Z,2.90
2022-10-25T15:53:14.118Z,2.80
2022-10-25T15:58:10.636Z,3.30
2022-10-25T16:03:07.843Z,3.40
2022-10-25T16:08:02.978Z,3.70
2022-10-25T16:13:03.231Z,3.60
2022-10-25T16:17:58.573Z,3.70
2022-10-25T16:22:55.030Z,3.00
2022-10-25T16:27:51.212Z,3.10
2022-10-25T16:32:49.448Z,3.00
2022-10-25T16:37:45.528Z,3.10
2022-10-25T16:42:41.642Z,2.70
2022-10-25T16:47:37.131Z,3.00
2022-10-25T16:52:31.964Z,3.00
2022-10-25T16:57:27.315Z,3.00
2022-10-25T17:02:25.057Z,2.40
2022-10-25T17:07:45.053Z,2.00
2022-10-25T17:12:47.029Z,2.90
2022-10-25T17:17:44.830Z,2.40
2022-10-25T17:22:41.366Z,2.20
2022-10-25T17:27:39.095Z,2.50
2022-10-25T17:32:34.134Z,2.70
2022-10-25T17:37:29.101Z,2.50
2022-10-25T17:42:24.214Z,3.50
2022-10-25T17:47:21.544Z,2.60
2022-10-25T17:52:16.730Z,2.70
2022-10-25T17:57:11.745Z,2.60
2022-10-25T18:02:06.814Z,2.90
2022-10-25T18:07:02.336Z,3.10
2022-10-25T18:11:57.754Z,2.90
2022-10-25T18:16:52.823Z,3.10
2022-10-25T18:21:47.837Z,3.10
2022-10-25T18:26:42.593Z,3.00
2022-10-25T18:31:38.412Z,3.60
2022-10-25T18:36:33.507Z,2.00
2022-10-25T18:41:31.590Z,3.10
2022-10-25T18:46:30.100Z,3.10
2022-10-25T18:51:28.176Z,2.90
2022-10-25T18:56:23.901Z,2.50
2022-10-25T19:01:23.663Z,3.90
2022-10-25T19:06:19.526Z,3.00
2022-10-25T19:11:16.583Z,4.00
2022-10-25T19:16:12.776Z,4.10
2022-10-25T19:21:14.149Z,3.40
2022-10-25T19:26:13.005Z,3.90
2022-10-25T19:31:12.369Z,3.60
2022-10-25T19:36:11.347Z,3.60
2022-10-25T19:41:10.104Z,4.70
2022-10-25T19:46:07.401Z,2.10
2022-10-25T19:51:08.768Z,4.40
2022-10-25T19:56:07.658Z,4.40
2022-10-25T20:01:07.323Z,3.80
2022-10-25T20:06:07.726Z,2.50
2022-10-25T20:11:04.006Z,4.30
2022-10-25T20:15:59.891Z,6.00
2022-10-25T20:21:00.622Z,6.70
2022-10-25T20:25:56.940Z,5.50
2022-10-25T20:30:53.193Z,4.80
2022-10-25T20:35:48.580Z,3.90
2022-10-25T20:40:44.787Z,5.80
2022-10-25T20:45:43.523Z,5.30
2022-10-25T20:50:42.575Z,2.90
2022-10-25T20:55:38.501Z,5.10
2022-10-25T21:00:33.667Z,5.20
2022-10-25T21:05:30.394Z,5.30
2022-10-25T21:10:26.109Z,4.70
2022-10-25T21:15:21.504Z,3.40
2022-10-25T21:20:17.311Z,5.00
2022-10-25T21:25:12.152Z,4.70
2022-10-25T21:30:11.427Z,4.10
2022-10-25T21:35:09.062Z,4.10
2022-10-25T21:40:04.700Z,4.60
2022-10-25T21:45:00.346Z,4.50
2022-10-25T21:49:56.450Z,4.40
2022-10-25T21:54:51.663Z,3.30
2022-10-25T21:59:49.423Z,3.50
2022-10-25T22:04:45.753Z,4.00
2022-10-25T22:09:40.417Z,4.70
2022-10-25T22:14:35.641Z,3.70
2022-10-25T22:19:30.117Z,4.70
2022-10-25T22:24:25.049Z,4.40
2022-10-25T22:29:19.913Z,4.70
2022-10-25T22:34:15.520Z,4.60
2022-10-25T22:39:11.310Z,5.10
2022-10-25T22:44:07.608Z,6.10
2022-10-25T22:49:08.340Z,5.90
2022-10-25T22:54:03.989Z,4.40
2022-10-25T22:59:01.409Z,5.50
2022-10-25T23:03:58.709Z,6.00
2022-10-25T23:08:55.935Z,5.70
2022-10-25T23:13:51.006Z,6.40
2022-10-25T23:18:47.354Z,6.10
2022-10-25T23:23:42.131Z,5.50
2022-10-25T23:28:37.482Z,6.00
2022-10-25T23:33:32.288Z,5.70
2022-10-25T23:38:27.964Z,6.50
2022-10-25T23:43:23.147Z,5.40
2022-10-25T23:48:17.826Z,5.60
2022-10-25T23:53:13.346Z,5.60
2022-10-25T23:58:08.814Z,5.30
